createdAt,value
2022-08-11T00:01:14.847Z,24.00
2022-08-11T00:03:50.018Z,23.90
2022-08-11T00:06:28.694Z,24.00
2022-08-11T00:08:59.238Z,23.90
2022-08-11T00:11:35.835Z,23.90
2022-08-11T00:14:13.635Z,23.90
2022-08-11T00:16:44.197Z,23.80
2022-08-11T00:19:14.475Z,23.80
2022-08-11T00:22:04.863Z,23.70
2022-08-11T00:24:49.359Z,23.70
2022-08-11T00:27:34.191Z,23.70
2022-08-11T00:30:04.611Z,23.80
2022-08-11T00:32:34.793Z,23.70
2022-08-11T00:35:54.533Z,23.70
2022-08-11T00:37:58.330Z,23.70
2022-08-11T00:40:35.993Z,23.70
2022-08-11T00:43:20.307Z,23.60
2022-08-11T00:46:12.525Z,23.60
2022-08-11T00:48:51.753Z,23.60
2022-08-11T00:52:04.993Z,23.60
2022-08-11T00:54:49.592Z,23.50
2022-08-11T00:57:48.831Z,23.50
2022-08-11T01:00:20.353Z,23.40
2022-08-11T01:03:19.201Z,23.50
2022-08-11T01:06:03.857Z,23.50
2022-08-11T01:09:22.221Z,23.40
2022-08-11T01:12:45.224Z,23.40
2022-08-11T01:15:55.836Z,23.40
2022-08-11T01:19:14.357Z,23.40
2022-08-11T01:22:20.433Z,23.30
2022-08-11T01:25:56.929Z,23.40
2022-08-11T01:29:06.427Z,23.30
2022-08-11T01:32:08.283Z,23.30
2022-08-11T01:35:16.780Z,23.30
2022-08-11T01:38:32.558Z,23.20
2022-08-11T01:41:51.449Z,23.20
2022-08-11T01:44:47.994Z,23.20
2022-08-11T01:47:52.971Z,23.20
2022-08-11T01:51:01.609Z,23.10
2022-08-11T01:53:51.467Z,23.20
2022-08-11T01:56:39.476Z,23.10
2022-08-11T01:59:17.165Z,23.10
2022-08-11T02:02:07.412Z,23.00
2022-08-11T02:04:42.345Z,23.00
2022-08-11T02:07:19.776Z,23.00
2022-08-11T02:10:36.575Z,22.90
2022-08-11T02:13:19.325Z,23.00
2022-08-11T02:16:17.688Z,22.90
2022-08-11T02:19:11.113Z,22.90
2022-08-11T02:22:04.999Z,22.80
2022-08-11T02:24:43.534Z,22.80
2022-08-11T02:27:23.340Z,22.80
2022-08-11T02:30:06.426Z,22.70
2022-08-11T02:33:00.586Z,22.70
2022-08-11T02:35:33.021Z,22.70
2022-08-11T02:38:15.876Z,22.60
2022-08-11T02:40:52.206Z,22.60
2022-08-11T02:43:36.400Z,22.60
2022-08-11T02:46:21.120Z,22.60
2022-08-11T02:49:19.641Z,22.60
2022-08-11T02:52:04.703Z,22.60
2022-08-11T02:54:40.818Z,22.50
2022-08-11T02:57:17.936Z,22.50
2022-08-11T02:59:54.897Z,22.50
2022-08-11T03:02:46.831Z,22.50
2022-08-11T03:05:35.019Z,22.50
2022-08-11T03:08:18.790Z,22.50
2022-08-11T03:11:15.969Z,22.40
2022-08-11T03:14:12.251Z,22.40
2022-08-11T03:16:53.077Z,22.40
2022-08-11T03:19:31.706Z,22.40
2022-08-11T03:22:11.131Z,22.40
2022-08-11T03:24:57.624Z,22.30
2022-08-11T03:27:38.088Z,22.30
2022-08-11T03:30:13.203Z,22.20
2022-08-11T03:33:09.148Z,22.30
2022-08-11T03:35:43.200Z,22.20
2022-08-11T03:38:16.398Z,22.30
2022-08-11T03:41:18.058Z,22.30
2022-08-11T03:44:09.233Z,22.20
2022-08-11T03:46:55.036Z,22.20
2022-08-11T03:49:39.410Z,22.20
2022-08-11T03:52:18.744Z,22.20
2022-08-11T03:54:57.041Z,22.10
2022-08-11T03:58:04.258Z,22.20
2022-08-11T04:01:21.664Z,22.10
2022-08-11T04:04:26.311Z,22.10
2022-08-11T04:07:25.645Z,22.00
2022-08-11T04:10:39.205Z,22.00
2022-08-11T04:13:42.460Z,22.00
2022-08-11T04:16:24.553Z,21.90
2022-08-11T04:19:25.031Z,22.00
2022-08-11T04:22:23.986Z,21.90
2022-08-11T04:25:57.974Z,21.90
2022-08-11T04:28:56.827Z,21.90
2022-08-11T04:31:44.268Z,21.80
2022-08-11T04:34:52.713Z,21.80
2022-08-11T04:37:44.577Z,21.80
2022-08-11T04:40:55.941Z,21.70
2022-08-11T04:44:10.247Z,21.70
2022-08-11T04:47:13.646Z,21.70
2022-08-11T04:50:17.437Z,21.70
2022-08-11T04:53:40.774Z,21.70
2022-08-11T04:56:33.184Z,21.70
2022-08-11T04:59:51.601Z,21.70
2022-08-11T05:03:01.602Z,21.70
2022-08-11T05:05:54.613Z,21.70
2022-08-11T05:08:56.554Z,21.70
2022-08-11T05:12:02.010Z,21.70
2022-08-11T05:14:57.674Z,21.70
2022-08-11T05:17:54.760Z,22.00
2022-08-11T05:20:44.701Z,21.80
2022-08-11T05:23:31.998Z,21.80
2022-08-11T05:26:47.853Z,21.70
2022-08-11T05:29:47.371Z,21.70
2022-08-11T05:32:43.212Z,21.80
2022-08-11T05:35:18.467Z,21.80
2022-08-11T05:38:21.829Z,21.80
2022-08-11T05:41:10.745Z,21.80
2022-08-11T05:44:20.146Z,21.80
2022-08-11T05:47:09.450Z,21.80
2022-08-11T05:49:58.330Z,21.80
2022-08-11T05:52:49.190Z,21.80
2022-08-11T05:55:51.039Z,21.90
2022-08-11T05:58:42.017Z,21.90
2022-08-11T06:01:14.164Z,21.90
2022-08-11T06:04:04.140Z,21.90
2022-08-11T06:06:35.388Z,21.90
2022-08-11T06:09:05.136Z,21.90
2022-08-11T06:11:43.941Z,21.90
2022-08-11T06:14:15.695Z,22.00
2022-08-11T06:16:49.045Z,22.00
2022-08-11T06:19:23.250Z,22.00
2022-08-11T06:21:54.838Z,22.00
2022-08-11T06:24:24.705Z,22.00
2022-08-11T06:27:11.856Z,22.10
2022-08-11T06:29:55.101Z,22.20
2022-08-11T06:32:27.588Z,22.20
2022-08-11T06:35:14.204Z,22.20
2022-08-11T06:37:58.707Z,22.30
2022-08-11T06:41:08.814Z,22.20
2022-08-11T06:43:55.876Z,22.30
2022-08-11T06:46:29.803Z,22.30
2022-08-11T06:49:02.559Z,22.30
2022-08-11T06:51:32.553Z,22.30
2022-08-11T06:54:06.015Z,22.30
2022-08-11T07:00:04.049Z,22.30
2022-08-11T07:02:35.828Z,22.40
2022-08-11T07:05:12.000Z,22.50
2022-08-11T07:08:36.066Z,22.50
2022-08-11T07:11:45.000Z,22.50
2022-08-11T07:14:38.446Z,22.50
2022-08-11T07:17:12.849Z,22.50
2022-08-11T07:20:01.810Z,22.60
2022-08-11T07:22:51.634Z,22.60
2022-08-11T07:25:55.644Z,22.60
2022-08-11T07:28:46.780Z,22.60
2022-08-11T07:31:21.743Z,22.60
2022-08-11T07:34:05.383Z,22.80
2022-08-11T07:36:42.065Z,22.70
2022-08-11T07:39:18.051Z,22.70
2022-08-11T07:41:48.611Z,22.70
2022-08-11T07:44:20.137Z,22.70
2022-08-11T07:47:08.549Z,22.70
2022-08-11T07:49:57.507Z,22.70
2022-08-11T07:52:34.299Z,22.80
2022-08-11T07:55:06.441Z,22.70
2022-08-11T07:58:14.958Z,22.70
2022-08-11T08:01:10.754Z,22.80
2022-08-11T08:04:08.442Z,22.80
2022-08-11T08:06:56.581Z,22.80
2022-08-11T08:09:44.865Z,22.80
2022-08-11T08:12:32.546Z,22.80
2022-08-11T08:15:24.955Z,22.80
2022-08-11T08:18:20.512Z,22.90
2022-08-11T08:20:50.516Z,22.90
2022-08-11T08:23:33.774Z,22.90
2022-08-11T08:26:16.865Z,22.90
2022-08-11T08:28:47.657Z,22.90
2022-08-11T08:31:16.567Z,22.90
2022-08-11T08:33:47.736Z,22.90
2022-08-11T08:36:17.298Z,22.90
2022-08-11T08:38:50.687Z,22.90
2022-08-11T08:41:24.444Z,22.90
2022-08-11T08:44:05.889Z,22.90
2022-08-11T08:46:50.737Z,23.00
2022-08-11T08:49:25.095Z,22.90
2022-08-11T08:52:01.268Z,23.00
2022-08-11T08:54:47.388Z,23.00
2022-08-11T08:57:18.853Z,23.00
2022-08-11T08:59:51.646Z,23.00
2022-08-11T09:02:34.047Z,23.00
2022-08-11T09:05:08.052Z,23.00
2022-08-11T09:07:39.071Z,23.00
2022-08-11T09:10:12.263Z,23.00
2022-08-11T09:12:43.919Z,23.00
2022-08-11T09:15:19.609Z,23.00
2022-08-11T09:17:51.631Z,23.00
2022-08-11T09:20:25.300Z,23.00
2022-08-11T09:26:30.759Z,23.00
2022-08-11T09:29:01.855Z,23.00
2022-08-11T09:31:39.469Z,23.10
2022-08-11T09:34:11.265Z,23.10
2022-08-11T09:37:01.810Z,23.10
2022-08-11T09:39:51.020Z,23.10
2022-08-11T09:42:24.002Z,23.10
2022-08-11T09:44:54.141Z,23.10
2022-08-11T09:47:26.889Z,23.10
2022-08-11T09:50:00.668Z,23.10
2022-08-11T09:52:37.193Z,23.20
2022-08-11T09:55:11.384Z,23.10
2022-08-11T09:57:59.797Z,23.10
2022-08-11T10:00:37.386Z,23.10
2022-08-11T10:03:11.222Z,23.20
2022-08-11T10:06:07.733Z,23.10
2022-08-11T10:08:42.134Z,23.20
2022-08-11T10:11:13.617Z,23.20
2022-08-11T10:14:32.826Z,23.10
2022-08-11T10:16:49.703Z,23.20
2022-08-11T10:19:22.217Z,23.20
2022-08-11T10:22:07.945Z,23.20
2022-08-11T10:24:56.933Z,23.20
2022-08-11T10:28:16.903Z,23.20
2022-08-11T10:30:34.250Z,23.20
2022-08-11T10:33:37.526Z,23.20
2022-08-11T10:36:15.957Z,23.20
2022-08-11T10:38:51.552Z,23.20
2022-08-11T10:42:03.315Z,23.20
2022-08-11T10:44:29.563Z,23.20
2022-08-11T10:47:16.717Z,23.20
2022-08-11T10:50:06.141Z,23.20
2022-08-11T10:52:55.701Z,23.30
2022-08-11T10:55:43.037Z,23.30
2022-08-11T10:58:31.587Z,23.30
2022-08-11T11:01:02.066Z,23.40
2022-08-11T11:03:35.522Z,23.40
2022-08-11T11:06:27.277Z,23.50
2022-08-11T11:09:05.315Z,23.50
2022-08-11T11:12:03.597Z,23.50
2022-08-11T11:14:58.846Z,23.50
2022-08-11T11:17:51.023Z,23.50
2022-08-11T11:20:34.680Z,23.50
2022-08-11T11:23:11.444Z,23.50
2022-08-11T11:26:11.260Z,23.50
2022-08-11T11:29:04.377Z,23.60
2022-08-11T11:31:44.813Z,23.60
2022-08-11T11:34:24.987Z,23.60
2022-08-11T11:36:58.331Z,23.60
2022-08-11T11:39:33.635Z,23.60
2022-08-11T11:42:06.627Z,23.70
2022-08-11T11:44:38.269Z,23.70
2022-08-11T11:47:09.937Z,23.70
2022-08-11T11:49:40.343Z,23.70
2022-08-11T11:52:14.779Z,23.70
2022-08-11T11:54:44.409Z,23.80
2022-08-11T11:57:33.094Z,23.70
2022-08-11T12:00:20.283Z,23.70
2022-08-11T12:02:52.706Z,23.70
2022-08-11T12:05:23.593Z,23.70
2022-08-11T12:08:13.413Z,23.70
2022-08-11T12:10:47.279Z,23.70
2022-08-11T12:13:35.973Z,23.70
2022-08-11T12:16:35.713Z,23.70
2022-08-11T12:18:59.485Z,23.70
2022-08-11T12:21:29.936Z,23.70
2022-08-11T12:24:19.344Z,23.70
2022-08-11T12:27:17.062Z,23.70
2022-08-11T12:29:55.073Z,23.70
2022-08-11T12:32:27.260Z,23.70
2022-08-11T12:34:58.238Z,23.70
2022-08-11T12:37:32.380Z,23.70
2022-08-11T12:40:43.030Z,23.70
2022-08-11T12:43:38.785Z,23.70
2022-08-11T12:46:11.312Z,23.90
2022-08-11T12:49:06.328Z,23.80
2022-08-11T12:52:06.760Z,23.90
2022-08-11T12:55:00.068Z,24.00
2022-08-11T12:57:51.056Z,24.00
2022-08-11T13:00:39.139Z,23.90
2022-08-11T13:03:28.393Z,23.90
2022-08-11T13:05:59.052Z,24.00
2022-08-11T13:08:32.994Z,24.00
2022-08-11T13:11:20.284Z,23.70
2022-08-11T13:13:57.091Z,23.90
2022-08-11T13:16:30.435Z,23.80
2022-08-11T13:19:01.780Z,24.00
2022-08-11T13:21:31.984Z,23.80
2022-08-11T13:24:03.828Z,23.90
2022-08-11T13:26:43.619Z,24.10
2022-08-11T13:29:19.975Z,24.00
2022-08-11T13:31:50.125Z,24.00
2022-08-11T13:34:21.152Z,23.80
2022-08-11T13:36:53.223Z,24.00
2022-08-11T13:39:25.220Z,24.00
2022-08-11T13:41:57.147Z,23.90
2022-08-11T13:44:28.528Z,24.00
2022-08-11T13:47:01.707Z,24.00
2022-08-11T13:49:32.273Z,24.10
2022-08-11T13:52:04.255Z,24.00
2022-08-11T13:54:38.629Z,24.00
2022-08-11T13:57:13.843Z,24.00
2022-08-11T14:00:14.550Z,24.10
2022-08-11T14:02:57.182Z,24.10
2022-08-11T14:05:29.780Z,24.10
2022-08-11T14:08:02.460Z,24.10
2022-08-11T14:10:35.244Z,24.10
2022-08-11T14:13:41.194Z,23.90
2022-08-11T14:16:18.714Z,24.10
2022-08-11T14:18:52.058Z,24.10
2022-08-11T14:21:42.332Z,24.10
2022-08-11T14:24:13.075Z,24.10
2022-08-11T14:26:45.552Z,24.10
2022-08-11T14:29:17.418Z,24.10
2022-08-11T14:31:49.140Z,24.10
2022-08-11T14:34:21.719Z,24.00
2022-08-11T14:36:53.432Z,24.10
2022-08-11T14:39:26.176Z,24.10
2022-08-11T14:42:16.538Z,24.10
2022-08-11T14:45:25.504Z,24.10
2022-08-11T14:48:15.385Z,24.10
2022-08-11T14:50:45.257Z,24.00
2022-08-11T14:53:17.843Z,24.10
2022-08-11T14:56:05.724Z,24.20
2022-08-11T14:58:37.793Z,24.20
2022-08-11T15:01:27.731Z,24.20
2022-08-11T15:04:34.365Z,24.20
2022-08-11T15:06:46.971Z,24.10
2022-08-11T15:09:17.169Z,24.20
2022-08-11T15:12:04.320Z,24.30
2022-08-11T15:14:56.078Z,24.20
2022-08-11T15:17:26.529Z,24.20
2022-08-11T15:20:34.340Z,24.20
2022-08-11T15:23:21.382Z,24.20
2022-08-11T15:25:56.574Z,24.20
2022-08-11T15:28:45.437Z,24.10
2022-08-11T15:31:35.314Z,24.10
2022-08-11T15:34:25.161Z,24.20
2022-08-11T15:37:18.712Z,24.20
2022-08-11T15:40:31.599Z,24.20
2022-08-11T15:43:20.235Z,24.20
2022-08-11T15:45:54.184Z,24.20
2022-08-11T15:48:35.799Z,24.20
2022-08-11T15:51:10.935Z,24.20
2022-08-11T15:53:56.574Z,24.20
2022-08-11T15:56:29.601Z,24.20
2022-08-11T15:59:42.603Z,24.20
2022-08-11T16:02:32.162Z,24.20
2022-08-11T16:05:07.468Z,24.20
2022-08-11T16:07:40.798Z,24.20
2022-08-11T16:10:17.938Z,24.30
2022-08-11T16:13:13.095Z,24.30
2022-08-11T16:16:22.233Z,24.40
2022-08-11T16:18:56.670Z,24.40
2022-08-11T16:21:33.771Z,24.30
2022-08-11T16:24:08.863Z,24.40
2022-08-11T16:27:10.235Z,24.30
2022-08-11T16:29:45.734Z,24.30
2022-08-11T16:32:18.781Z,24.40
2022-08-11T16:35:09.869Z,24.30
2022-08-11T16:37:59.564Z,24.40
2022-08-11T16:40:29.697Z,24.30
2022-08-11T16:43:17.605Z,24.40
2022-08-11T16:46:05.325Z,24.40
2022-08-11T16:48:38.636Z,24.30
2022-08-11T16:51:08.879Z,24.30
2022-08-11T16:53:59.986Z,24.40
2022-08-11T16:56:33.805Z,24.30
2022-08-11T16:59:16.552Z,24.40
2022-08-11T17:01:55.119Z,24.30
2022-08-11T17:04:50.216Z,24.40
2022-08-11T17:07:42.999Z,24.40
2022-08-11T17:10:52.716Z,24.30
2022-08-11T17:13:30.595Z,24.30
2022-08-11T17:16:11.931Z,24.30
2022-08-11T17:18:52.716Z,24.40
2022-08-11T17:21:27.581Z,24.40
2022-08-11T17:24:02.797Z,24.30
2022-08-11T17:26:57.218Z,24.40
2022-08-11T17:29:30.024Z,24.30
2022-08-11T17:32:18.007Z,24.40
2022-08-11T17:35:06.740Z,24.40
2022-08-11T17:37:38.166Z,24.40
2022-08-11T17:40:11.381Z,24.40
2022-08-11T17:43:02.751Z,24.40
2022-08-11T17:45:55.755Z,24.40
2022-08-11T17:48:28.786Z,24.40
2022-08-11T17:51:00.505Z,24.40
2022-08-11T17:54:24.730Z,24.40
2022-08-11T17:56:57.328Z,24.40
2022-08-11T17:59:54.257Z,24.40
2022-08-11T18:02:44.920Z,24.40
2022-08-11T18:05:17.500Z,24.40
2022-08-11T18:08:05.647Z,24.40
2022-08-11T18:10:53.204Z,24.40
2022-08-11T18:13:41.867Z,24.40
2022-08-11T18:16:30.806Z,24.50
2022-08-11T18:19:17.582Z,24.50
2022-08-11T18:22:13.023Z,24.50
2022-08-11T18:25:05.992Z,25.00
2022-08-11T18:27:54.967Z,24.50
2022-08-11T18:30:42.767Z,24.40
2022-08-11T18:33:56.914Z,24.40
2022-08-11T18:36:45.657Z,24.50
2022-08-11T18:39:34.222Z,24.40
2022-08-11T18:42:29.309Z,24.50
2022-08-11T18:45:20.232Z,24.50
2022-08-11T18:48:11.567Z,24.40
2022-08-11T18:51:31.248Z,24.50
2022-08-11T18:54:16.710Z,24.50
2022-08-11T18:57:05.890Z,24.50
2022-08-11T18:59:56.676Z,24.50
2022-08-11T19:02:49.344Z,24.50
2022-08-11T19:06:32.205Z,24.50
2022-08-11T19:08:50.005Z,24.50
2022-08-11T19:11:43.491Z,24.50
2022-08-11T19:14:31.834Z,24.50
2022-08-11T19:17:43.546Z,24.50
2022-08-11T19:20:38.783Z,24.50
2022-08-11T19:23:28.635Z,24.50
2022-08-11T19:26:18.354Z,24.50
2022-08-11T19:29:07.711Z,24.50
2022-08-11T19:31:56.175Z,24.50
2022-08-11T19:34:44.230Z,24.40
2022-08-11T19:37:31.489Z,24.50
2022-08-11T19:40:22.683Z,24.50
2022-08-11T19:43:23.514Z,24.50
2022-08-11T19:46:16.190Z,24.50
2022-08-11T19:49:05.096Z,24.50
2022-08-11T19:51:53.619Z,24.50
2022-08-11T19:54:44.539Z,24.50
2022-08-11T19:57:38.763Z,24.60
2022-08-11T20:00:32.520Z,24.40
2022-08-11T20:03:30.179Z,24.50
2022-08-11T20:06:20.747Z,24.60
2022-08-11T20:09:09.067Z,24.50
2022-08-11T20:12:00.332Z,24.50
2022-08-11T20:14:49.509Z,24.50
2022-08-11T20:17:39.614Z,24.50
2022-08-11T20:20:28.722Z,24.50
2022-08-11T20:23:17.553Z,24.50
2022-08-11T20:26:29.788Z,24.50
2022-08-11T20:29:17.778Z,24.50
2022-08-11T20:32:06.702Z,24.50
2022-08-11T20:34:59.323Z,24.60
2022-08-11T20:37:51.072Z,24.50
2022-08-11T20:40:40.795Z,24.60
2022-08-11T20:44:08.159Z,24.60
2022-08-11T20:46:41.449Z,24.60
2022-08-11T20:49:40.648Z,24.60
2022-08-11T20:52:36.210Z,24.60
2022-08-11T20:55:26.147Z,24.60
2022-08-11T20:58:48.015Z,24.60
2022-08-11T21:01:41.341Z,24.60
2022-08-11T21:04:28.999Z,24.60
2022-08-11T21:07:27.707Z,24.60
2022-08-11T21:10:29.279Z,24.60
2022-08-11T21:13:24.102Z,24.60
2022-08-11T21:16:25.791Z,24.60
2022-08-11T21:20:06.571Z,24.60
2022-08-11T21:22:28.441Z,24.60
2022-08-11T21:25:17.330Z,24.60
2022-08-11T21:28:08.753Z,24.60
2022-08-11T21:30:57.599Z,24.60
2022-08-11T21:33:48.912Z,24.60
2022-08-11T21:36:37.479Z,24.60
2022-08-11T21:39:25.848Z,24.60
2022-08-11T21:42:13.800Z,24.50
2022-08-11T21:45:03.750Z,24.50
2022-08-11T21:48:01.234Z,24.50
2022-08-11T21:50:48.258Z,24.50
2022-08-11T21:53:35.060Z,24.50
2022-08-11T21:56:26.231Z,24.50
2022-08-11T21:59:16.426Z,24.50
2022-08-11T22:02:11.908Z,24.50
2022-08-11T22:05:00.261Z,24.50
2022-08-11T22:07:47.670Z,24.50
2022-08-11T22:10:41.134Z,24.40
2022-08-11T22:13:30.962Z,24.50
2022-08-11T22:16:17.969Z,24.40
2022-08-11T22:19:09.377Z,24.40
2022-08-11T22:22:04.270Z,24.40
2022-08-11T22:24:55.084Z,24.40
2022-08-11T22:27:42.294Z,24.40
2022-08-11T22:30:30.190Z,24.40
2022-08-11T22:33:21.778Z,24.40
2022-08-11T22:36:16.372Z,24.40
2022-08-11T22:39:05.109Z,24.50
2022-08-11T22:41:51.931Z,24.50
2022-08-11T22:44:38.728Z,24.40
2022-08-11T22:47:29.424Z,24.30
2022-08-11T22:50:28.438Z,24.40
2022-08-11T22:53:17.603Z,24.40
2022-08-11T22:56:05.331Z,24.20
2022-08-11T22:58:53.377Z,24.20
2022-08-11T23:01:54.749Z,24.20
2022-08-11T23:04:43.176Z,24.30
2022-08-11T23:07:51.119Z,24.20
2022-08-11T23:10:39.392Z,24.20
2022-08-11T23:13:27.060Z,24.20
2022-08-11T23:16:14.267Z,24.10
2022-08-11T23:19:01.916Z,24.10
2022-08-11T23:21:50.351Z,24.10
2022-08-11T23:24:37.969Z,24.00
2022-08-11T23:27:27.968Z,24.00
2022-08-11T23:30:17.259Z,24.00
2022-08-11T23:33:10.034Z,24.00
2022-08-11T23:36:04.427Z,24.00
2022-08-11T23:38:51.608Z,24.00
2022-08-11T23:41:38.932Z,24.00
2022-08-11T23:44:27.887Z,24.00
2022-08-11T23:47:17.528Z,24.00
2022-08-11T23:50:05.719Z,23.90
2022-08-11T23:52:52.968Z,23.90
2022-08-11T23:55:39.861Z,23.90
2022-08-11T23:58:26.683Z,23.80
